Time;durP1;ratioP1;P1;durP2;ratioP2;P2;SDS_P1;SDS_P2;PMS_P1;PMS_P2;Temp;Humidity;BMP_temperature;BMP_pressure;BME280_temperature;BME280_humidity;BME280_pressure;Samples;Min_cycle;Max_cycle;Signal;HPM_P1;HPM_P2
2022/09/18 00:02:25;;;;;;;;;7.67;6.00;;;;;12.96;70.77;101403.09;4871795;29;45589;-82
2022/09/18 00:04:51;;;;;;;;;5.33;5.00;;;;;12.89;70.82;101389.66;4868710;29;45468;-82
2022/09/18 00:07:17;;;;;;;;;5.67;5.67;;;;;12.93;70.69;101408.41;4870043;29;44888;-82
2022/09/18 00:09:43;;;;;;;;;5.00;5.00;;;;;12.90;70.67;101403.00;4853251;29;46734;-82
2022/09/18 00:12:09;;;;;;;;;4.00;4.00;;;;;12.91;70.81;101404.81;4870673;29;45255;-82
2022/09/18 00:14:34;;;;;;;;;5.00;5.00;;;;;12.87;70.91;101400.31;4870424;29;45404;-82
2022/09/18 00:17:00;;;;;;;;;4.00;4.00;;;;;12.87;70.90;101397.63;4856497;29;45372;-82
2022/09/18 00:19:25;;;;;;;;;5.67;5.67;;;;;12.86;71.07;101400.28;4870319;29;45400;-81
2022/09/18 00:21:52;;;;;;;;;5.00;5.00;;;;;12.89;70.80;101403.91;4853204;29;45627;-81
2022/09/18 00:24:18;;;;;;;;;4.00;4.00;;;;;12.89;70.74;101400.34;4852637;29;45464;-82
2022/09/18 00:26:50;;;;;;;;;3.00;3.00;;;;;12.91;71.12;101399.47;4870379;29;45439;-82
2022/09/18 00:29:16;;;;;;;;;5.67;5.67;;;;;12.85;71.14;101391.38;4866959;29;47850;-82
2022/09/18 00:31:42;;;;;;;;;6.00;5.00;;;;;12.81;71.37;101389.53;4852180;29;45869;-82
2022/09/18 00:37:29;;;;;;;;;5.67;5.67;;;;;12.84;71.77;101399.34;4869062;29;45370;-81
2022/09/18 00:39:55;;;;;;;;;3.00;3.00;;;;;12.77;71.57;101391.25;4871652;29;45789;-82
2022/09/18 00:42:20;;;;;;;;;8.33;5.00;;;;;12.83;71.52;101397.59;4873587;29;45451;-81
2022/09/18 00:44:47;;;;;;;;;6.00;5.00;;;;;12.84;71.43;101400.25;4873108;29;45382;-81
2022/09/18 00:47:22;;;;;;;;;6.67;5.00;;;;;12.83;71.37;101393.13;4873685;29;45458;-82
2022/09/18 00:49:58;;;;;;;;;6.00;6.00;;;;;12.81;71.54;101401.09;4854722;29;46865;-81
2022/09/18 00:52:28;;;;;;;;;2.67;2.67;;;;;12.79;71.27;101396.63;4871627;29;45365;-81
2022/09/18 00:55:06;;;;;;;;;6.00;5.67;;;;;12.83;71.83;101398.47;4871526;29;45423;-81
2022/09/18 00:57:36;;;;;;;;;7.00;7.00;;;;;12.83;71.93;101401.13;4855569;29;45474;-81
2022/09/18 01:00:11;;;;;;;;;5.00;5.00;;;;;12.77;71.60;101395.72;4854570;29;47088;-81
2022/09/18 01:02:38;;;;;;;;;6.67;5.67;;;;;12.76;71.84;101397.44;4871149;29;45482;-81
2022/09/18 01:05:05;;;;;;;;;3.00;3.00;;;;;12.74;72.17;101395.66;4853666;29;45428;-81
2022/09/18 01:07:52;;;;;;;;;6.00;5.33;;;;;12.73;72.30;101409.88;4854182;29;45889;-82
2022/09/18 01:10:40;;;;;;;;;5.00;5.00;;;;;12.68;72.30;101403.56;4871495;29;45471;-82
2022/09/18 01:13:18;;;;;;;;;4.33;4.33;;;;;12.67;72.40;101409.78;4871802;29;45423;-81
2022/09/18 01:15:59;;;;;;;;;3.00;3.00;;;;;12.57;72.87;101393.59;4871928;29;45396;-81
2022/09/18 01:18:50;;;;;;;;;4.00;4.00;;;;;12.62;72.84;101401.69;4855039;29;45540;-81
2022/09/18 01:21:37;;;;;;;;;2.00;2.00;;;;;12.57;73.12;101393.59;4869737;29;48283;-82
2022/09/18 01:24:06;;;;;;;;;3.33;3.33;;;;;12.58;73.17;101399.84;4854040;29;45455;-81
2022/09/18 01:26:55;;;;;;;;;3.00;3.00;;;;;12.57;72.96;101398.94;4855592;29;45308;-82
2022/09/18 01:29:39;;;;;;;;;4.33;4.00;;;;;12.56;73.51;101393.56;4854381;29;45378;-82
2022/09/18 01:32:16;;;;;;;;;2.00;2.00;;;;;12.53;73.59;101399.75;4869275;29;45484;-82
2022/09/18 01:35:23;;;;;;;;;2.00;2.00;;;;;12.48;73.38;101390.81;4869259;29;45771;-82
2022/09/18 01:38:06;;;;;;;;;7.33;4.00;;;;;12.52;73.52;101389.97;4857346;29;44861;-81
2022/09/18 01:40:46;;;;;;;;;2.67;2.67;;;;;12.50;73.71;101397.06;4873974;29;45441;-81
2022/09/18 01:43:16;;;;;;;;;3.00;3.00;;;;;12.49;74.12;101394.38;4872958;29;45482;-80
2022/09/18 01:45:52;;;;;;;;;3.33;3.00;;;;;12.47;74.07;101397.00;4857449;29;45904;-82
2022/09/18 01:48:31;;;;;;;;;3.33;3.33;;;;;12.48;73.81;101398.81;4874034;29;44894;-81
2022/09/18 01:51:08;;;;;;;;;2.00;2.00;;;;;12.42;73.76;101382.66;4874757;29;45376;-81
2022/09/18 01:57:05;;;;;;;;;2.33;2.00;;;;;12.41;73.77;101395.13;4874358;29;44842;-81
2022/09/18 01:59:35;;;;;;;;;4.33;3.00;;;;;12.37;74.34;101385.28;4872515;29;44787;-81
2022/09/18 02:02:05;;;;;;;;;2.67;2.67;;;;;12.36;74.38;101388.81;4872904;29;45694;-80
2022/09/18 02:04:36;;;;;;;;;4.00;3.00;;;;;12.38;74.38;101384.41;4854779;29;47071;-81
2022/09/18 02:07:13;;;;;;;;;3.00;3.00;;;;;12.40;74.23;101387.06;4854514;29;45560;-81
2022/09/18 02:09:41;;;;;;;;;2.67;2.67;;;;;12.39;73.87;101382.63;4855095;29;44903;-82
2022/09/18 02:12:13;;;;;;;;;4.00;4.00;;;;;12.36;74.55;101382.56;4872430;29;45495;-81
2022/09/18 02:14:44;;;;;;;;;5.00;3.33;;;;;12.33;74.02;101379.88;4871603;29;46977;-80
2022/09/18 02:17:23;;;;;;;;;4.00;4.00;;;;;12.26;74.03;101375.28;4873247;29;45448;-82
2022/09/18 02:20:12;;;;;;;;;4.00;4.00;;;;;12.19;74.39;101367.19;4873723;29;45409;-81
2022/09/18 02:22:40;;;;;;;;;4.00;3.67;;;;;12.25;74.54;101378.84;4859755;29;45552;-81
2022/09/18 02:25:08;;;;;;;;;4.00;3.00;;;;;12.20;74.93;101377.00;4854994;29;48448;-81
2022/09/18 02:27:37;;;;;;;;;3.67;2.67;;;;;12.21;75.12;101373.44;4871191;29;45400;-82
2022/09/18 02:30:05;;;;;;;;;3.33;3.33;;;;;12.14;75.19;101367.97;4873082;29;45258;-82
2022/09/18 02:32:31;;;;;;;;;3.67;3.00;;;;;12.12;75.87;101375.97;4871116;29;45352;-82
2022/09/18 02:34:57;;;;;;;;;4.00;4.00;;;;;12.12;75.75;101378.63;4872560;29;45409;-82
2022/09/18 02:37:25;;;;;;;;;4.00;3.33;;;;;12.09;75.93;101375.88;4872115;29;45455;-82
2022/09/18 02:40:10;;;;;;;;;4.00;4.00;;;;;12.06;76.13;101375.84;4871478;29;45536;-83
2022/09/18 02:42:57;;;;;;;;;5.00;3.00;;;;;12.08;76.58;101379.44;4872548;29;45439;-81
2022/09/18 02:45:35;;;;;;;;;3.00;3.00;;;;;12.05;76.34;101375.81;4872359;29;45691;-81
2022/09/18 02:48:01;;;;;;;;;2.00;2.00;;;;;12.01;76.93;101374.84;4870880;29;44850;-81
2022/09/18 02:50:27;;;;;;;;;4.00;4.00;;;;;11.98;77.19;101373.03;4854662;29;45384;-81
2022/09/18 02:53:04;;;;;;;;;3.67;3.67;;;;;11.96;76.92;101365.88;4871780;29;45808;-81
2022/09/18 02:55:42;;;;;;;;;3.00;3.00;;;;;11.92;77.27;101367.59;4853856;29;48543;-82
2022/09/18 02:58:36;;;;;;;;;4.00;3.00;;;;;11.90;77.76;101368.44;4871641;29;45453;-82
2022/09/18 03:01:04;;;;;;;;;8.67;8.00;;;;;11.92;77.97;101364.94;4813265;29;45511;-82
2022/09/18 03:03:31;;;;;;;;;4.00;4.00;;;;;11.93;78.05;101350.72;4828117;29;45439;-82
2022/09/18 03:05:57;;;;;;;;;4.00;4.00;;;;;11.93;78.26;101363.16;4828741;29;47967;-82
2022/09/18 03:08:23;;;;;;;;;3.67;3.33;;;;;11.89;78.29;101353.31;4812807;29;45520;-81
2022/09/18 03:10:49;;;;;;;;;5.00;4.00;;;;;11.91;78.73;101359.56;4812229;29;45401;-82
2022/09/18 03:13:14;;;;;;;;;5.00;5.00;;;;;11.87;78.90;101347.00;4812369;29;45906;-82
2022/09/18 03:15:40;;;;;;;;;4.33;4.33;;;;;11.86;78.75;101353.22;4812290;29;46155;-82
2022/09/18 03:18:05;;;;;;;;;4.00;3.33;;;;;11.85;78.68;101348.75;4801933;29;45488;-82
2022/09/18 03:20:31;;;;;;;;;3.67;3.67;;;;;11.81;78.90;101346.03;4780641;29;45451;-82
2022/09/18 03:22:56;;;;;;;;;5.00;5.00;;;;;11.74;79.00;101333.47;4796249;29;45333;-82
2022/09/18 03:25:22;;;;;;;;;5.33;5.33;;;;;11.79;79.12;101353.09;4796769;29;47123;-82
2022/09/18 03:27:47;;;;;;;;;2.33;2.33;;;;;11.72;79.02;101337.88;4797824;29;45735;-82
2022/09/18 03:30:13;;;;;;;;;3.67;3.67;;;;;11.73;79.44;101344.97;4797423;29;45382;-81
2022/09/18 03:32:38;;;;;;;;;4.33;4.00;;;;;11.73;79.05;101338.75;4798628;29;45601;-82
2022/09/18 03:35:04;;;;;;;;;3.33;3.33;;;;;11.75;79.10;101335.25;4798993;29;45473;-82
2022/09/18 03:37:29;;;;;;;;;4.00;4.00;;;;;11.77;79.15;101337.94;4838697;29;45448;-82
2022/09/18 03:39:55;;;;;;;;;4.00;4.00;;;;;11.71;79.43;101330.72;4858476;29;45340;-82
2022/09/18 03:42:20;;;;;;;;;5.33;5.00;;;;;11.74;79.48;101338.78;4858065;29;45636;-81
2022/09/18 03:44:46;;;;;;;;;4.33;4.33;;;;;11.73;79.47;101331.66;4858384;29;45435;-81
2022/09/18 03:47:11;;;;;;;;;5.67;5.33;;;;;11.70;79.69;101336.94;4856198;29;45359;-81
2022/09/18 03:49:37;;;;;;;;;5.67;3.67;;;;;11.66;79.65;101335.09;4872989;29;45510;-81
2022/09/18 03:52:02;;;;;;;;;6.00;5.00;;;;;11.65;80.27;101327.06;4857146;29;45912;-81
2022/09/18 03:54:27;;;;;;;;;4.00;4.00;;;;;11.63;80.05;101331.47;4871589;29;46357;-81
2022/09/18 03:56:53;;;;;;;;;3.67;3.67;;;;;11.67;80.11;101335.97;4871319;29;45540;-81
2022/09/18 03:59:18;;;;;;;;;4.00;4.00;;;;;11.59;79.95;101327.81;4870796;29;45506;-81
2022/09/18 04:01:43;;;;;;;;;4.00;4.00;;;;;11.64;79.95;101342.16;4870758;29;45346;-81
2022/09/18 04:04:09;;;;;;;;;5.33;4.00;;;;;11.61;80.15;101337.66;4873255;29;45538;-81
2022/09/18 04:06:34;;;;;;;;;5.00;4.00;;;;;11.66;79.69;101351.06;4871412;29;45491;-82
2022/09/18 04:09:00;;;;;;;;;4.67;4.67;;;;;11.68;79.82;101349.34;4871215;29;45511;-81
2022/09/18 04:11:31;;;;;;;;;3.00;3.00;;;;;11.63;80.24;101334.13;4872953;29;45362;-81
2022/09/18 04:13:58;;;;;;;;;4.33;4.33;;;;;11.65;80.25;101338.59;4872941;29;46053;-81
2022/09/18 04:16:24;;;;;;;;;4.00;4.00;;;;;11.65;80.40;101335.06;4871561;29;45787;-82
2022/09/18 04:18:56;;;;;;;;;4.33;3.33;;;;;11.64;80.18;101336.81;4868740;29;45493;-81
2022/09/18 04:21:21;;;;;;;;;3.33;3.33;;;;;11.61;80.74;101343.00;4869065;29;45462;-81
2022/09/18 04:23:48;;;;;;;;;5.00;5.00;;;;;11.52;80.71;101332.16;4870164;29;45436;-81
2022/09/18 04:26:14;;;;;;;;;4.00;4.00;;;;;11.57;81.20;101337.56;4867419;29;45694;-82
2022/09/18 04:28:40;;;;;;;;;4.00;4.00;;;;;11.52;81.28;101333.94;4868240;29;45386;-81
2022/09/18 04:31:05;;;;;;;;;5.00;3.33;;;;;11.48;81.51;101318.75;4868910;29;45449;-81
2022/09/18 04:33:31;;;;;;;;;3.00;3.00;;;;;11.51;81.51;101334.78;4869818;29;45401;-81
2022/09/18 04:35:56;;;;;;;;;2.33;2.33;;;;;11.49;81.79;101341.84;4869000;29;45388;-81
2022/09/18 04:38:26;;;;;;;;;3.00;3.00;;;;;11.49;81.82;101340.09;4867682;29;45428;-82
2022/09/18 04:40:58;;;;;;;;;3.00;3.00;;;;;11.48;82.15;101340.94;4869523;29;44776;-82
2022/09/18 04:43:26;;;;;;;;;5.00;3.67;;;;;11.45;81.99;101339.97;4853788;29;47541;-82
2022/09/18 04:45:52;;;;;;;;;2.67;2.67;;;;;11.47;81.99;101338.25;4854048;29;45438;-82
2022/09/18 04:48:19;;;;;;;;;3.00;3.00;;;;;11.49;83.02;101342.75;4854286;29;44967;-82
2022/09/18 04:50:46;;;;;;;;;5.00;5.00;;;;;11.45;82.67;101342.66;4853747;29;45541;-82
2022/09/18 04:53:12;;;;;;;;;4.00;4.00;;;;;11.41;82.71;101345.25;4870284;29;46912;-82
2022/09/18 04:55:38;;;;;;;;;4.00;3.00;;;;;11.48;82.63;101350.72;4870769;29;45304;-81
2022/09/18 04:58:04;;;;;;;;;4.00;4.00;;;;;11.49;83.12;101352.50;4869536;29;45462;-82
2022/09/18 05:00:30;;;;;;;;;6.00;5.00;;;;;11.48;82.74;101351.59;4870576;29;45409;-81
2022/09/18 05:02:55;;;;;;;;;4.00;4.00;;;;;11.49;83.00;101352.50;4853429;29;46943;-82
2022/09/18 05:05:20;;;;;;;;;3.00;3.00;;;;;11.38;83.09;101330.97;4868682;29;45662;-81
2022/09/18 05:07:47;;;;;;;;;3.33;3.33;;;;;11.45;83.19;101346.19;4867914;29;44854;-81
2022/09/18 05:10:13;;;;;;;;;3.67;3.67;;;;;11.47;83.52;101359.56;4868619;29;45519;-81
2022/09/18 05:12:39;;;;;;;;;4.00;4.00;;;;;11.35;83.24;101336.22;4871563;29;45495;-82
2022/09/18 05:15:06;;;;;;;;;5.67;3.67;;;;;11.37;83.53;101350.47;4873175;29;45528;-82
2022/09/18 05:17:31;;;;;;;;;3.67;3.67;;;;;11.39;83.95;101356.72;4872573;29;45528;-81
2022/09/18 05:19:57;;;;;;;;;7.33;4.00;;;;;11.35;84.04;101357.53;4855660;29;45393;-82
2022/09/18 05:22:23;;;;;;;;;5.00;4.00;;;;;11.39;84.01;101367.38;4854784;29;47202;-81
2022/09/18 05:24:48;;;;;;;;;2.67;2.67;;;;;11.35;84.43;101369.09;4872684;29;45436;-82
2022/09/18 05:27:13;;;;;;;;;3.00;3.00;;;;;11.38;84.81;101361.16;4857289;29;45348;-82
2022/09/18 05:29:39;;;;;;;;;5.00;5.00;;;;;11.36;84.87;101362.00;4871770;29;44803;-81
2022/09/18 05:32:04;;;;;;;;;5.00;4.00;;;;;11.35;84.92;101354.88;4856527;29;46978;-82
2022/09/18 05:34:29;;;;;;;;;5.33;5.00;;;;;11.34;84.71;101359.31;4873987;29;45428;-82
2022/09/18 05:36:55;;;;;;;;;3.00;3.00;;;;;11.36;84.73;101356.69;4858522;29;44855;-82
2022/09/18 05:39:20;;;;;;;;;3.00;3.00;;;;;11.31;85.05;101353.00;4874126;29;45344;-81
2022/09/18 05:41:50;;;;;;;;;5.33;4.00;;;;;11.34;85.25;101361.09;4857580;29;47267;-81
2022/09/18 05:44:16;;;;;;;;;4.00;4.00;;;;;11.34;85.21;101367.28;4872756;29;45479;-81
2022/09/18 05:46:42;;;;;;;;;4.00;4.00;;;;;11.32;85.38;101371.69;4875248;29;44841;-82
2022/09/18 05:49:09;;;;;;;;;3.33;3.33;;;;;11.34;86.45;101369.97;4872723;29;44936;-81
2022/09/18 05:51:35;;;;;;;;;4.00;3.00;;;;;11.30;86.11;101354.78;4872588;29;45415;-81
2022/09/18 05:54:00;;;;;;;;;5.67;5.00;;;;;11.35;85.88;101361.13;4872568;29;45884;-81
2022/09/18 05:56:26;;;;;;;;;3.33;2.00;;;;;11.35;85.74;101358.47;4871642;29;45457;-82
2022/09/18 05:58:52;;;;;;;;;4.00;4.00;;;;;11.37;86.03;101359.38;4871606;29;45526;-82
2022/09/18 06:01:18;;;;;;;;;3.67;3.00;;;;;11.45;85.34;101358.63;4871067;29;47705;-82
2022/09/18 06:03:44;;;;;;;;;3.00;3.00;;;;;11.49;85.78;101363.16;4870861;29;45725;-81
2022/09/18 06:06:09;;;;;;;;;4.33;3.67;;;;;11.49;85.58;101368.47;4872277;29;45340;-82
2022/09/18 06:08:35;;;;;;;;;3.00;3.00;;;;;11.53;85.42;101359.69;4872175;29;45419;-82
2022/09/18 06:11:01;;;;;;;;;4.00;4.00;;;;;11.55;85.33;101366.84;4871049;29;45395;-82
2022/09/18 06:13:27;;;;;;;;;3.00;3.00;;;;;11.60;85.06;101377.59;4871414;29;45458;-82
2022/09/18 06:15:53;;;;;;;;;5.00;3.00;;;;;11.59;85.09;101362.47;4872204;29;45412;-81
2022/09/18 06:18:19;;;;;;;;;3.00;3.00;;;;;11.68;84.86;101373.31;4873144;29;45368;-81
2022/09/18 06:20:54;;;;;;;;;5.00;3.00;;;;;11.72;85.10;101377.84;4873797;29;45345;-82
2022/09/18 06:23:21;;;;;;;;;4.00;4.00;;;;;11.77;85.01;101364.59;4874057;29;45390;-82
2022/09/18 06:25:47;;;;;;;;;3.00;3.00;;;;;11.91;84.78;101378.22;4874811;29;45416;-82
2022/09/18 06:28:12;;;;;;;;;3.00;3.00;;;;;11.99;84.73;101366.81;4874423;29;45407;-82
2022/09/18 06:30:38;;;;;;;;;3.67;3.67;;;;;12.07;83.93;101369.63;4874270;29;46050;-82
2022/09/18 06:33:09;;;;;;;;;2.33;2.00;;;;;12.18;83.87;101378.72;4873626;29;45528;-82
2022/09/18 06:35:37;;;;;;;;;3.00;3.00;;;;;12.23;83.35;101376.13;4874204;29;44805;-82
2022/09/18 06:38:04;;;;;;;;;3.67;2.00;;;;;12.22;83.63;101382.34;4872907;29;45729;-82
2022/09/18 06:40:30;;;;;;;;;2.67;2.67;;;;;12.27;83.60;101387.75;4873834;29;45855;-81
2022/09/18 06:42:56;;;;;;;;;2.00;2.00;;;;;12.32;83.43;101378.06;4873873;29;45467;-82
2022/09/18 06:45:25;;;;;;;;;3.00;3.00;;;;;12.40;83.24;101373.75;4872506;29;44794;-82
2022/09/18 06:47:54;;;;;;;;;2.67;2.33;;;;;12.53;83.01;101381.09;4874865;29;45389;-82
2022/09/18 06:50:23;;;;;;;;;3.00;3.00;;;;;12.63;82.44;101374.13;4872955;29;47561;-82
2022/09/18 06:52:49;;;;;;;;;3.00;3.00;;;;;12.68;82.04;101369.75;4873699;29;45944;-82
2022/09/18 06:55:16;;;;;;;;;3.00;3.00;;;;;12.78;82.36;101378.81;4874325;29;45405;-82
2022/09/18 06:57:42;;;;;;;;;3.00;3.00;;;;;12.86;81.71;101368.25;4873991;29;45870;-81
2022/09/18 07:00:09;;;;;;;;;3.00;3.00;;;;;12.94;81.43;101372.81;4871401;29;46732;-81
2022/09/18 07:02:35;;;;;;;;;6.33;4.33;;;;;12.99;81.32;101360.44;4873169;29;45393;-82
2022/09/18 07:05:01;;;;;;;;;1.33;1.33;;;;;13.06;80.84;101361.41;4873854;29;45464;-82
2022/09/18 07:07:26;;;;;;;;;3.00;3.00;;;;;13.15;80.73;101364.22;4872806;29;45381;-82
2022/09/18 07:09:52;;;;;;;;;3.00;2.00;;;;;13.22;80.70;101375.88;4870859;29;47031;-81
2022/09/18 07:12:17;;;;;;;;;4.00;2.00;;;;;13.32;80.29;101368.91;4856427;29;45495;-81
2022/09/18 07:14:43;;;;;;;;;3.67;3.67;;;;;13.36;80.07;101366.28;4867436;29;44914;-81
2022/09/18 07:17:09;;;;;;;;;2.00;2.00;;;;;13.38;79.67;101369.88;4836421;29;45435;-82
2022/09/18 07:19:35;;;;;;;;;2.00;2.00;;;;;13.33;79.51;101366.28;4853145;29;45365;-81
2022/09/18 07:22:00;;;;;;;;;2.00;2.00;;;;;13.35;80.00;101380.56;4854293;29;45371;-81
2022/09/18 07:24:26;;;;;;;;;2.33;2.33;;;;;13.27;79.59;101365.25;4854028;29;45444;-82
2022/09/18 07:26:51;;;;;;;;;4.00;3.00;;;;;13.29;80.05;101369.78;4871540;29;45332;-81
2022/09/18 07:29:16;;;;;;;;;1.67;1.67;;;;;13.36;80.05;101373.41;4871868;29;45378;-81
2022/09/18 07:31:43;;;;;;;;;3.00;3.00;;;;;13.46;79.96;101378.00;4855708;29;44978;-81
2022/09/18 07:34:10;;;;;;;;;2.00;2.00;;;;;13.57;80.12;101376.38;4855151;29;44807;-81
2022/09/18 07:36:36;;;;;;;;;2.67;2.67;;;;;13.67;80.04;101369.31;4872290;29;45801;-81
2022/09/18 07:42:25;;;;;;;;;4.33;3.67;;;;;13.96;79.18;101364.31;4872689;29;45471;-81
2022/09/18 07:44:50;;;;;;;;;2.67;2.67;;;;;14.06;78.46;101376.00;4873913;29;45439;-81
2022/09/18 07:47:16;;;;;;;;;3.33;3.33;;;;;14.19;78.16;101377.91;4855768;29;44994;-82
2022/09/18 07:49:42;;;;;;;;;3.33;2.67;;;;;14.23;77.99;101373.47;4873497;29;45728;-82
2022/09/18 07:52:07;;;;;;;;;5.00;3.00;;;;;14.40;77.40;101379.88;4872633;29;45334;-82
2022/09/18 07:54:33;;;;;;;;;4.67;4.00;;;;;14.46;76.98;101378.13;4852877;29;45598;-82
2022/09/18 07:56:59;;;;;;;;;4.00;4.00;;;;;14.52;77.21;101371.06;4871477;29;45369;-82
2022/09/18 07:59:24;;;;;;;;;1.00;1.00;;;;;14.60;75.92;101373.81;4872137;29;45150;-82
2022/09/18 08:01:51;;;;;;;;;2.00;2.00;;;;;14.60;75.58;101385.44;4872098;29;45373;-82
2022/09/18 08:04:17;;;;;;;;;2.00;2.00;;;;;14.51;75.22;101374.63;4871920;29;45379;-82
2022/09/18 08:06:42;;;;;;;;;2.00;2.00;;;;;14.51;75.55;101385.31;4855493;29;45451;-82
2022/09/18 08:09:07;;;;;;;;;3.00;3.00;;;;;14.53;75.75;101374.63;4870262;29;45213;-81
2022/09/18 08:11:33;;;;;;;;;2.00;2.00;;;;;14.69;76.03;101383.72;4869287;29;45454;-81
2022/09/18 08:13:58;;;;;;;;;2.00;2.00;;;;;14.86;75.69;101384.72;4869676;29;45411;-81
2022/09/18 08:16:24;;;;;;;;;2.67;2.00;;;;;14.98;74.91;101391.94;4868616;29;45619;-81
2022/09/18 08:18:49;;;;;;;;;3.33;3.00;;;;;14.99;74.58;101388.38;4853212;29;48049;-82
2022/09/18 08:21:14;;;;;;;;;4.00;2.67;;;;;14.94;74.16;101385.66;4868762;29;45347;-82
2022/09/18 08:24:17;;;;;;;;;2.00;2.00;;;;;14.96;74.62;101389.25;4854965;29;44858;-82
2022/09/18 08:26:43;;;;;;;;;3.00;3.00;;;;;15.01;74.14;101381.25;4855456;29;45302;-81
2022/09/18 08:29:09;;;;;;;;;3.33;3.33;;;;;15.07;74.12;101380.38;4871899;29;45558;-82
2022/09/18 08:31:34;;;;;;;;;3.67;3.67;;;;;15.15;74.12;101381.34;4855352;29;44928;-82
2022/09/18 08:34:00;;;;;;;;;2.00;2.00;;;;;15.30;74.06;101378.72;4870383;29;45410;-82
2022/09/18 08:37:18;;;;;;;;;3.00;2.00;;;;;15.43;73.48;101376.09;4853926;29;45379;-81
2022/09/18 08:39:44;;;;;;;;;3.00;3.00;;;;;15.46;72.82;101377.00;4854033;29;47035;-81
2022/09/18 08:42:51;;;;;;;;;1.00;1.00;;;;;15.51;72.55;101382.38;4853953;29;45718;-81
2022/09/18 08:45:17;;;;;;;;;4.00;4.00;;;;;15.53;72.77;101381.53;4869130;29;45454;-82
2022/09/18 08:47:51;;;;;;;;;5.33;4.00;;;;;15.59;72.99;101380.63;4852401;29;44863;-82
2022/09/18 08:50:30;;;;;;;;;3.33;3.33;;;;;15.60;71.82;101380.63;4852498;29;47220;-81
2022/09/18 08:53:05;;;;;;;;;3.00;3.00;;;;;15.49;72.24;101379.72;4868700;29;45346;-82
2022/09/18 08:55:41;;;;;;;;;3.00;3.00;;;;;15.49;72.73;101394.88;4868025;29;45485;-82
2022/09/18 08:58:13;;;;;;;;;3.00;2.67;;;;;15.48;72.61;101377.91;4869616;29;45394;-82
2022/09/18 09:00:43;;;;;;;;;3.33;3.33;;;;;15.57;72.63;101386.00;4869878;29;46938;-82
2022/09/18 09:03:24;;;;;;;;;3.00;3.00;;;;;15.73;72.08;101389.63;4869852;29;45751;-82
2022/09/18 09:06:18;;;;;;;;;3.00;3.00;;;;;15.77;71.70;101383.44;4853713;29;45351;-82
2022/09/18 09:09:05;;;;;;;;;3.33;2.00;;;;;15.89;71.81;101377.16;4780787;29;44934;-82
2022/09/18 09:11:43;;;;;;;;;2.00;2.00;;;;;16.02;71.30;101375.44;4779254;29;47350;-82
2022/09/18 09:14:30;;;;;;;;;4.33;2.00;;;;;16.18;70.62;101382.59;4779926;29;45554;-83
2022/09/18 09:17:12;;;;;;;;;3.00;3.00;;;;;16.32;70.47;101379.03;4795420;29;45377;-82
2022/09/18 09:19:40;;;;;;;;;1.00;1.00;;;;;16.42;69.55;101377.25;4796671;29;45298;-83
2022/09/18 09:22:19;;;;;;;;;4.00;3.00;;;;;16.40;67.40;101362.03;4792810;29;45440;-83
2022/09/18 09:24:57;;;;;;;;;3.00;3.00;;;;;16.49;68.73;101366.50;4793846;29;45386;-83
2022/09/18 09:27:29;;;;;;;;;1.00;1.00;;;;;16.59;67.68;101357.56;4796086;29;45283;-82
2022/09/18 09:30:02;;;;;;;;;2.00;2.00;;;;;16.76;64.01;101370.06;4795870;29;45490;-82
2022/09/18 09:32:57;;;;;;;;;1.00;1.00;;;;;16.77;65.26;101350.38;4796200;29;45579;-82
2022/09/18 09:35:37;;;;;;;;;1.67;1.67;;;;;16.85;65.53;101363.84;4777754;29;45829;-82
2022/09/18 09:38:20;;;;;;;;;2.00;2.00;;;;;16.85;65.50;101345.91;4763963;29;46451;-82
2022/09/18 09:40:52;;;;;;;;;1.33;1.33;;;;;17.00;64.73;101353.91;4779807;29;45782;-82
2022/09/18 09:43:37;;;;;;;;;1.33;1.33;;;;;17.03;63.24;101349.44;4793450;29;45707;-82
2022/09/18 09:46:15;;;;;;;;;2.00;1.00;;;;;16.99;60.14;101344.09;4799350;29;45495;-82
2022/09/18 09:48:52;;;;;;;;;1.33;1.00;;;;;17.08;59.95;101358.38;4813857;29;45649;-82
2022/09/18 09:51:37;;;;;;;;;4.00;3.00;;;;;17.13;58.78;101353.91;4814528;29;45678;-82
2022/09/18 09:54:09;;;;;;;;;1.00;1.00;;;;;17.14;58.56;101355.69;4813133;29;46391;-82
2022/09/18 09:57:03;;;;;;;;;1.00;1.00;;;;;17.12;57.04;101353.00;4830068;29;45010;-82
2022/09/18 10:00:00;;;;;;;;;1.67;1.67;;;;;17.18;57.15;101362.84;4832374;29;45471;-82
2022/09/18 10:02:52;;;;;;;;;2.00;2.00;;;;;17.30;58.75;101360.09;4805203;29;45502;-82
2022/09/18 10:05:55;;;;;;;;;1.00;1.00;;;;;17.39;55.51;101352.00;4808780;29;45856;-82
2022/09/18 10:08:45;;;;;;;;;1.00;1.00;;;;;17.38;55.93;101355.59;4832267;29;45449;-81
2022/09/18 10:11:12;;;;;;;;;2.00;2.00;;;;;17.37;56.11;101358.28;4830683;29;45425;-83
2022/09/18 10:13:53;;;;;;;;;1.00;1.00;;;;;17.40;55.30;101364.53;4850945;29;45691;-83
2022/09/18 10:16:21;;;;;;;;;0.00;0.00;;;;;17.47;55.39;101349.28;4851727;29;46241;-83
2022/09/18 10:18:48;;;;;;;;;2.33;1.00;;;;;17.52;54.09;101342.09;4850375;29;45509;-83
2022/09/18 10:21:19;;;;;;;;;1.00;1.00;;;;;17.56;54.01;101340.28;4851512;29;45428;-83
2022/09/18 10:24:38;;;;;;;;;1.00;1.00;;;;;17.65;53.82;101342.91;4851755;29;45541;-84
2022/09/18 10:27:10;;;;;;;;;2.00;2.00;;;;;17.66;53.98;101338.44;4794456;29;45678;-83
2022/09/18 10:29:35;;;;;;;;;1.67;1.67;;;;;17.70;53.96;101337.53;4791567;29;45522;-83
2022/09/18 10:32:02;;;;;;;;;2.00;2.00;;;;;17.71;53.26;101332.09;4780763;29;45530;-83
2022/09/18 10:34:39;;;;;;;;;2.00;2.00;;;;;17.73;54.47;101327.63;4778527;29;45843;-83
2022/09/18 10:37:12;;;;;;;;;1.00;1.00;;;;;17.77;54.71;101337.47;4794112;29;48109;-82
2022/09/18 10:39:50;;;;;;;;;2.67;2.67;;;;;17.85;53.81;101328.47;4778943;29;45809;-83
2022/09/18 10:42:19;;;;;;;;;2.33;1.67;;;;;17.78;53.20;101323.09;4794036;29;45486;-82
2022/09/18 10:44:52;;;;;;;;;3.67;2.33;;;;;17.77;53.22;101326.72;4778448;29;45525;-83
2022/09/18 10:47:24;;;;;;;;;2.00;2.00;;;;;17.74;52.56;101326.72;4778465;29;48042;-83
2022/09/18 10:49:57;;;;;;;;;2.00;2.00;;;;;17.73;53.35;101308.81;4792910;29;45757;-82
2022/09/18 10:52:32;;;;;;;;;4.00;2.33;;;;;17.88;53.08;101328.47;4794066;29;45414;-82
2022/09/18 10:55:19;;;;;;;;;3.00;3.00;;;;;17.85;51.14;101328.47;4795342;29;45421;-82
2022/09/18 10:58:03;;;;;;;;;3.00;3.00;;;;;17.85;52.90;101331.16;4793837;29;47262;-82
2022/09/18 11:00:33;;;;;;;;;4.33;3.33;;;;;17.93;52.91;101321.25;4793494;29;45513;-82
2022/09/18 11:03:22;;;;;;;;;3.00;3.00;;;;;18.01;53.00;101324.78;4837768;29;45389;-82
2022/09/18 11:05:58;;;;;;;;;2.33;2.33;;;;;18.11;53.08;101326.50;4846120;29;45063;-82
2022/09/18 11:08:29;;;;;;;;;4.00;2.33;;;;;18.15;52.97;101327.38;4831280;29;45454;-82
2022/09/18 11:11:15;;;;;;;;;2.00;2.00;;;;;18.27;52.49;101323.69;4565287;29;8117340;-82
2022/09/18 11:14:01;;;;;;;;;2.00;2.00;;;;;18.38;51.92;101313.72;4851717;29;45391;-82
2022/09/18 11:16:34;;;;;;;;;3.00;1.67;;;;;18.44;53.18;101304.69;4871269;29;45487;-82
2022/09/18 11:19:21;;;;;;;;;3.00;1.33;;;;;18.57;53.30;101293.78;4869816;29;47782;-82
2022/09/18 11:21:53;;;;;;;;;4.00;3.00;;;;;18.74;51.54;101311.56;4853359;29;45459;-82
2022/09/18 11:24:32;;;;;;;;;2.00;2.00;;;;;18.74;52.01;101306.16;4854122;29;45469;-82
2022/09/18 11:27:02;;;;;;;;;2.25;2.25;;;;;18.74;50.24;101316.94;4869154;29;45319;-83
2022/09/18 11:29:38;;;;;;;;;1.33;1.33;;;;;18.64;50.91;101297.28;4868331;29;47108;-83
2022/09/18 11:32:28;;;;;;;;;2.00;2.00;;;;;18.62;51.32;101304.50;4853737;29;45515;-83
2022/09/18 11:35:00;;;;;;;;;2.75;2.75;;;;;18.56;51.30;101312.63;4852566;29;45420;-83
2022/09/18 11:37:35;;;;;;;;;2.50;2.50;;;;;18.46;50.79;101311.84;4870208;29;44825;-83
2022/09/18 11:40:06;;;;;;;;;4.75;4.50;;;;;18.53;52.19;101307.28;4870249;29;45969;-83
2022/09/18 11:42:32;;;;;;;;;4.25;3.00;;;;;18.64;51.59;101299.97;4852761;29;45798;-83
2022/09/18 11:45:33;;;;;;;;;2.00;2.00;;;;;18.83;50.49;101311.50;4852778;29;44850;-84
2022/09/18 11:48:10;;;;;;;;;2.00;2.00;;;;;18.91;51.82;101292.56;4810238;29;44773;-83
2022/09/18 11:50:37;;;;;;;;;2.75;2.25;;;;;19.11;51.55;101306.69;4793628;29;46735;-83
2022/09/18 11:53:32;;;;;;;;;5.00;3.00;;;;;19.29;50.29;101294.78;4795075;29;45433;-83
2022/09/18 11:56:25;;;;;;;;;1.50;1.50;;;;;19.45;50.11;101289.16;4793647;29;45592;-83